Time;durP1;ratioP1;P1;durP2;ratioP2;P2;SDS_P1;SDS_P2;PMS_P1;PMS_P2;Temp;Humidity;BMP_temperature;BMP_pressure;BME280_temperature;BME280_humidity;BME280_pressure;Samples;Min_cycle;Max_cycle;Signal;HPM_P1;HPM_P2
2023/12/25 00:00:04;;;;;;;11.40;3.03;;;13.60;1.00;;;;;;4969155;28;20043;-38
2023/12/25 00:02:32;;;;;;;14.40;3.20;;;13.60;1.00;;;;;;4968143;28;20082;-36
2023/12/25 00:04:58;;;;;;;15.43;3.65;;;14.50;1.00;;;;;;4972457;28;20512;-35
2023/12/25 00:07:23;;;;;;;16.98;3.00;;;14.00;1.00;;;;;;4971831;28;20030;-38
2023/12/25 00:09:49;;;;;;;12.05;2.60;;;14.20;1.00;;;;;;4971210;28;20043;-35
2023/12/25 00:12:15;;;;;;;13.57;3.25;;;13.60;1.00;;;;;;4970642;28;20074;-36
2023/12/25 00:14:41;;;;;;;12.27;3.10;;;14.20;1.00;;;;;;4971245;28;20401;-35
2023/12/25 00:17:06;;;;;;;10.68;2.72;;;13.90;1.00;;;;;;4969219;28;20108;-39
2023/12/25 00:19:32;;;;;;;9.70;2.88;;;14.30;1.00;;;;;;4972336;28;20115;-36
2023/12/25 00:21:58;;;;;;;10.43;2.78;;;14.10;1.00;;;;;;4972461;28;20051;-35
2023/12/25 00:24:24;;;;;;;14.27;2.80;;;14.20;1.00;;;;;;4954538;28;20047;-35
2023/12/25 00:26:50;;;;;;;11.30;3.08;;;14.20;1.00;;;;;;4971855;28;20050;-35
2023/12/25 00:29:15;;;;;;;11.32;2.55;;;13.50;1.00;;;;;;4970887;28;20039;-35
2023/12/25 00:31:41;;;;;;;9.63;2.83;;;14.30;1.00;;;;;;4971584;28;20178;-36
2023/12/25 00:34:07;;;;;;;10.18;2.63;;;14.00;1.00;;;;;;4971488;28;20411;-36
2023/12/25 00:36:33;;;;;;;13.15;3.10;;;14.40;1.00;;;;;;4971754;28;20129;-39
2023/12/25 00:38:59;;;;;;;8.25;2.42;;;14.00;1.00;;;;;;4972064;28;20043;-38
2023/12/25 00:41:30;;;;;;;9.10;2.60;;;14.00;1.00;;;;;;4971905;28;20174;-36
2023/12/25 00:43:57;;;;;;;10.38;3.58;;;14.50;1.00;;;;;;4972080;28;20392;-36
2023/12/25 00:46:23;;;;;;;11.90;2.70;;;13.60;1.00;;;;;;4971123;28;20056;-35
2023/12/25 00:48:49;;;;;;;9.15;2.95;;;14.60;1.00;;;;;;4971733;28;20043;-34
2023/12/25 00:51:15;;;;;;;9.60;3.10;;;14.00;1.00;;;;;;4971398;28;20043;-35
2023/12/25 00:53:40;;;;;;;10.93;2.67;;;14.50;1.00;;;;;;4971685;28;20038;-36
2023/12/25 00:56:07;;;;;;;8.30;2.42;;;14.50;1.00;;;;;;4971236;28;20418;-40
2023/12/25 00:58:33;;;;;;;9.48;2.63;;;14.40;1.00;;;;;;4971912;28;20085;-35
2023/12/25 01:00:59;;;;;;;11.00;2.63;;;13.70;1.00;;;;;;4954496;28;20502;-35
2023/12/25 01:03:25;;;;;;;10.13;3.22;;;14.60;1.00;;;;;;4971025;28;20487;-37
2023/12/25 01:05:51;;;;;;;9.65;2.47;;;14.30;1.00;;;;;;4971306;28;20041;-38
2023/12/25 01:08:16;;;;;;;11.77;2.70;;;14.10;1.00;;;;;;4971112;28;20047;-36
2023/12/25 01:10:42;;;;;;;10.38;3.03;;;14.50;1.00;;;;;;4971611;28;20034;-36
2023/12/25 01:13:07;;;;;;;10.23;2.63;;;14.40;1.00;;;;;;4970260;28;20049;-35
2023/12/25 01:15:33;;;;;;;11.68;3.17;;;14.20;1.00;;;;;;4967740;28;20123;-38
2023/12/25 01:17:59;;;;;;;11.25;2.70;;;14.90;1.00;;;;;;4971061;28;20058;-38
2023/12/25 01:20:25;;;;;;;8.63;2.28;;;14.40;1.00;;;;;;4970651;28;20583;-36
2023/12/25 01:22:51;;;;;;;9.75;2.30;;;15.10;1.00;;;;;;4971511;28;20046;-35
2023/12/25 01:25:16;;;;;;;8.07;2.47;;;13.70;1.00;;;;;;4969739;28;20046;-36
2023/12/25 01:27:42;;;;;;;7.97;2.50;;;14.20;1.00;;;;;;4971121;28;20061;-37
2023/12/25 01:30:10;;;;;;;8.98;2.13;;;14.40;1.00;;;;;;4969945;28;20043;-38
2023/12/25 01:32:36;;;;;;;7.93;2.28;;;14.40;1.00;;;;;;4968043;28;20039;-35
2023/12/25 01:35:02;;;;;;;12.20;2.38;;;14.40;1.00;;;;;;4971401;28;20042;-35
2023/12/25 01:37:27;;;;;;;9.52;2.40;;;14.10;1.00;;;;;;4970031;28;20537;-35
2023/12/25 01:39:53;;;;;;;10.23;2.38;;;14.30;1.00;;;;;;4971457;28;20033;-35
2023/12/25 01:42:19;;;;;;;6.30;2.08;;;14.50;1.00;;;;;;4970962;28;20043;-38
2023/12/25 01:44:46;;;;;;;11.82;2.55;;;;;;;;;;4971275;28;20147;-35
2023/12/25 01:47:13;;;;;;;11.63;2.65;;;14.00;1.00;;;;;;4969020;28;20494;-36
2023/12/25 01:49:38;;;;;;;7.38;2.10;;;14.60;1.00;;;;;;4970998;28;20117;-35
2023/12/25 01:52:04;;;;;;;9.30;2.65;;;13.90;1.00;;;;;;4970988;28;20130;-35
2023/12/25 01:54:32;;;;;;;9.63;2.40;;;13.90;1.00;;;;;;4969044;28;20122;-36
2023/12/25 01:56:58;;;;;;;10.07;2.40;;;14.20;1.00;;;;;;4970820;28;20054;-35
2023/12/25 01:59:28;;;;;;;8.35;1.88;;;14.90;1.00;;;;;;4970140;28;20043;-36
2023/12/25 02:01:54;;;;;;;9.25;2.20;;;14.20;1.00;;;;;;4965875;28;20070;-35
2023/12/25 02:04:20;;;;;;;7.43;2.20;;;14.30;1.00;;;;;;4980450;28;20541;-38
2023/12/25 02:06:46;;;;;;;14.13;3.13;;;14.40;1.00;;;;;;4970427;28;20070;-38
2023/12/25 02:09:13;;;;;;;7.97;2.08;;;14.00;1.00;;;;;;4971084;28;20043;-39
2023/12/25 02:11:42;;;;;;;8.63;2.25;;;14.10;1.00;;;;;;4970271;28;20038;-36
2023/12/25 02:14:09;;;;;;;9.07;2.13;;;14.70;1.00;;;;;;4975070;28;20037;-35
2023/12/25 02:16:36;;;;;;;11.38;2.40;;;14.70;1.00;;;;;;4972705;28;20066;-36
2023/12/25 02:19:05;;;;;;;7.13;1.92;;;14.20;1.00;;;;;;4974733;28;20402;-35
2023/12/25 02:21:30;;;;;;;7.72;1.95;;;14.50;1.00;;;;;;4986574;28;20066;-38
2023/12/25 02:23:59;;;;;;;7.88;2.03;;;14.10;1.00;;;;;;4974903;28;20244;-35
2023/12/25 02:26:25;;;;;;;6.78;1.88;;;14.20;1.00;;;;;;4972377;28;20391;-39
2023/12/25 02:28:51;;;;;;;9.77;2.85;;;14.50;1.00;;;;;;4974591;28;20046;-36
2023/12/25 02:31:17;;;;;;;9.00;2.22;;;14.10;1.00;;;;;;4956517;28;20058;-41
2023/12/25 02:33:43;;;;;;;9.15;2.40;;;14.30;1.00;;;;;;4973347;28;20043;-36
2023/12/25 02:36:08;;;;;;;8.18;2.35;;;14.00;1.00;;;;;;4974465;28;20459;-35
2023/12/25 02:38:34;;;;;;;9.27;2.15;;;14.20;1.00;;;;;;4972496;28;20041;-42
2023/12/25 02:41:00;;;;;;;6.45;2.03;;;15.00;1.00;;;;;;4974458;28;20038;-40
2023/12/25 02:43:26;;;;;;;6.88;2.10;;;14.50;1.00;;;;;;4973791;28;20037;-37
2023/12/25 02:45:51;;;;;;;8.35;2.35;;;14.30;1.00;;;;;;4970274;28;20487;-36
2023/12/25 02:48:18;;;;;;;7.82;2.30;;;14.70;1.00;;;;;;4974004;28;20498;-36
2023/12/25 02:50:43;;;;;;;8.93;2.40;;;14.20;1.00;;;;;;4973253;28;20039;-37
2023/12/25 02:53:09;;;;;;;8.57;2.38;;;14.40;1.00;;;;;;4974434;28;20392;-37
2023/12/25 02:55:35;;;;;;;7.93;2.10;;;14.40;1.00;;;;;;4973628;28;20461;-37
2023/12/25 02:58:00;;;;;;;7.68;2.25;;;14.40;1.00;;;;;;4973576;28;20037;-36
2023/12/25 03:00:26;;;;;;;7.65;2.42;;;14.40;1.00;;;;;;4963368;28;20039;-35
2023/12/25 03:02:51;;;;;;;7.63;1.90;;;14.70;1.00;;;;;;4972207;28;20031;-36
2023/12/25 03:05:17;;;;;;;7.43;1.98;;;14.40;1.00;;;;;;4970455;28;20074;-40
2023/12/25 03:07:43;;;;;;;7.88;2.35;;;14.30;1.00;;;;;;4969917;28;20065;-36
2023/12/25 03:10:08;;;;;;;8.23;1.95;;;15.00;1.00;;;;;;4970503;28;20113;-36
2023/12/25 03:12:34;;;;;;;6.72;1.98;;;14.60;1.00;;;;;;4963898;28;20458;-38
2023/12/25 03:14:59;;;;;;;8.13;2.50;;;15.20;1.00;;;;;;4971679;28;20023;-37
2023/12/25 03:17:25;;;;;;;7.03;2.10;;;14.40;1.00;;;;;;4969974;28;20129;-35
2023/12/25 03:19:51;;;;;;;7.10;2.45;;;15.10;1.00;;;;;;4971382;28;20038;-37
2023/12/25 03:22:16;;;;;;;8.63;2.72;;;14.10;99.90;;;;;;4973580;28;20172;-38
2023/12/25 03:24:42;;;;;;;8.20;1.70;;;14.30;1.00;;;;;;4970940;28;20027;-38
2023/12/25 03:27:08;;;;;;;6.50;1.98;;;14.70;99.90;;;;;;4972046;28;20039;-35
2023/12/25 03:29:33;;;;;;;8.75;2.70;;;14.40;99.90;;;;;;4972981;28;20034;-36
2023/12/25 03:31:59;;;;;;;7.82;2.20;;;13.80;99.90;;;;;;4972992;28;20483;-36
2023/12/25 03:34:25;;;;;;;6.75;2.05;;;14.40;99.90;;;;;;4972928;28;20075;-39
2023/12/25 03:36:50;;;;;;;8.23;2.15;;;14.80;99.90;;;;;;4972877;28;20510;-35
2023/12/25 03:39:16;;;;;;;6.57;2.00;;;14.30;99.90;;;;;;4988227;28;20049;-36
2023/12/25 03:41:42;;;;;;;12.57;2.50;;;14.40;99.90;;;;;;4970857;28;20049;-34
2023/12/25 03:44:07;;;;;;;9.20;2.88;;;14.70;99.90;;;;;;4973415;28;20092;-37
2023/12/25 03:46:33;;;;;;;6.20;1.90;;;14.40;99.90;;;;;;4972018;28;20046;-35
2023/12/25 03:48:58;;;;;;;7.20;2.00;;;14.50;99.90;;;;;;4973061;28;20035;-35
2023/12/25 03:51:24;;;;;;;9.25;3.15;;;14.40;99.90;;;;;;4972787;28;20093;-42
2023/12/25 03:53:50;;;;;;;8.00;2.03;;;14.30;99.90;;;;;;4973221;28;20046;-36
2023/12/25 03:56:18;;;;;;;7.78;1.92;;;14.50;99.90;;;;;;4972362;28;20524;-35
2023/12/25 03:58:44;;;;;;;6.65;1.63;;;14.50;99.90;;;;;;4972484;28;20547;-36
2023/12/25 04:01:10;;;;;;;8.98;2.92;;;14.40;99.90;;;;;;4972873;28;20035;-35
2023/12/25 04:03:36;;;;;;;7.10;1.70;;;14.00;99.90;;;;;;4970910;28;20046;-35
2023/12/25 04:06:01;;;;;;;8.65;2.15;;;14.70;99.90;;;;;;4972594;28;20031;-35
2023/12/25 04:08:27;;;;;;;9.23;2.42;;;14.00;99.90;;;;;;4971209;28;20050;-35
2023/12/25 04:10:53;;;;;;;7.72;2.28;;;14.30;99.90;;;;;;4969453;28;20089;-35
2023/12/25 04:13:19;;;;;;;6.38;1.63;;;14.30;99.90;;;;;;4972647;28;20219;-39
2023/12/25 04:15:44;;;;;;;8.20;2.20;;;14.70;99.90;;;;;;4971898;28;20038;-37
2023/12/25 04:18:10;;;;;;;7.90;1.90;;;14.70;99.90;;;;;;4972633;28;20049;-35
2023/12/25 04:20:36;;;;;;;8.73;2.00;;;14.50;99.90;;;;;;4970258;28;20685;-35
2023/12/25 04:23:01;;;;;;;6.88;1.92;;;14.80;99.90;;;;;;4980469;28;20468;-38
2023/12/25 04:25:27;;;;;;;9.63;1.90;;;14.30;99.90;;;;;;4969982;28;20051;-36
2023/12/25 04:27:53;;;;;;;6.22;1.92;;;14.70;99.90;;;;;;4968406;28;20046;-35
2023/12/25 04:30:18;;;;;;;8.50;2.10;;;14.80;99.90;;;;;;4972086;28;20038;-35
2023/12/25 04:32:44;;;;;;;5.50;1.70;;;14.40;99.90;;;;;;4971864;28;20125;-39
2023/12/25 04:35:09;;;;;;;7.18;1.83;;;14.50;99.90;;;;;;4972040;28;20113;-36
2023/12/25 04:37:35;;;;;;;6.43;1.73;;;14.20;99.90;;;;;;4971413;28;20031;-35
2023/12/25 04:40:00;;;;;;;6.97;1.63;;;14.50;99.90;;;;;;4971925;28;20031;-35
2023/12/25 04:42:26;;;;;;;6.88;1.92;;;14.40;99.90;;;;;;4972089;28;20038;-33
2023/12/25 04:44:52;;;;;;;8.55;2.00;;;14.30;99.90;;;;;;4971514;28;20089;-33
2023/12/25 04:47:17;;;;;;;6.75;1.77;;;14.80;99.90;;;;;;4970294;28;20130;-35
2023/12/25 04:49:43;;;;;;;7.70;2.00;;;14.50;99.90;;;;;;4971736;28;20161;-34
2023/12/25 04:52:08;;;;;;;9.38;2.05;;;14.60;99.90;;;;;;4954835;28;20491;-34
2023/12/25 04:54:34;;;;;;;7.57;2.20;;;14.70;99.90;;;;;;4971277;28;20046;-35
2023/12/25 04:57:00;;;;;;;8.02;2.20;;;14.20;99.90;;;;;;4971375;28;20406;-33
2023/12/25 04:59:25;;;;;;;6.75;1.90;;;14.80;99.90;;;;;;4971523;28;20043;-36
2023/12/25 05:01:53;;;;;;;8.98;2.05;;;14.50;99.90;;;;;;4970264;28;20057;-34
2023/12/25 05:04:19;;;;;;;6.75;2.15;;;14.70;99.90;;;;;;4971591;28;20088;-34
2023/12/25 05:06:45;;;;;;;8.80;1.92;;;14.10;99.90;;;;;;4967071;28;20050;-34
2023/12/25 05:09:11;;;;;;;6.35;2.00;;;14.60;99.90;;;;;;4971132;28;20100;-34
2023/12/25 05:11:37;;;;;;;5.65;1.65;;;15.30;99.90;;;;;;4971044;28;20414;-33
2023/12/25 05:14:02;;;;;;;9.65;1.85;;;14.50;99.90;;;;;;4970125;28;20117;-35
2023/12/25 05:16:28;;;;;;;6.15;1.70;;;14.70;99.90;;;;;;4971170;28;20073;-34
2023/12/25 05:18:53;;;;;;;8.82;2.05;;;15.10;99.90;;;;;;4969982;28;20093;-34
2023/12/25 05:21:19;;;;;;;7.68;1.77;;;14.80;99.90;;;;;;4961017;28;20039;-33
2023/12/25 05:23:45;;;;;;;8.35;2.05;;;14.70;99.90;;;;;;4965469;28;20133;-36
2023/12/25 05:26:10;;;;;;;7.63;2.30;;;14.90;99.90;;;;;;4968561;28;20094;-36
2023/12/25 05:28:36;;;;;;;8.05;2.00;;;14.10;99.90;;;;;;4968676;28;20050;-36
2023/12/25 05:31:01;;;;;;;6.55;1.80;;;14.60;99.90;;;;;;4969383;28;20041;-34
2023/12/25 05:33:27;;;;;;;6.75;1.73;;;14.30;99.90;;;;;;4969474;28;20043;-38
2023/12/25 05:35:53;;;;;;;6.07;1.70;;;14.60;99.90;;;;;;4968524;28;20514;-37
2023/12/25 05:38:18;;;;;;;6.15;1.80;;;14.80;99.90;;;;;;4969211;28;20069;-34
2023/12/25 05:40:44;;;;;;;7.97;1.85;;;15.20;99.90;;;;;;4968644;28;20042;-34
2023/12/25 05:43:11;;;;;;;10.00;2.17;;;15.20;99.90;;;;;;4971161;28;20046;-36
2023/12/25 05:45:38;;;;;;;7.22;1.65;;;14.80;99.90;;;;;;4969401;28;20055;-35
2023/12/25 05:48:04;;;;;;;9.68;2.25;;;15.10;1.00;;;;;;4965663;28;20050;-34
2023/12/25 05:50:30;;;;;;;9.32;1.88;;;14.60;99.90;;;;;;4970834;28;20043;-35
2023/12/25 05:52:55;;;;;;;9.13;2.00;;;15.10;99.90;;;;;;4968779;28;20042;-34
2023/12/25 05:55:21;;;;;;;8.35;2.15;;;14.90;99.90;;;;;;4970714;28;20486;-37
2023/12/25 05:57:48;;;;;;;7.20;1.60;;;15.60;1.00;;;;;;4969890;28;20047;-38
2023/12/25 06:00:14;;;;;;;6.30;1.90;;;14.80;1.00;;;;;;4970852;28;20621;-35
2023/12/25 06:02:40;;;;;;;7.90;2.00;;;15.20;1.00;;;;;;4952833;28;20074;-35
2023/12/25 06:05:05;;;;;;;8.90;2.08;;;14.80;1.00;;;;;;4970937;28;20070;-38
2023/12/25 06:07:31;;;;;;;6.70;1.92;;;15.00;1.00;;;;;;4968828;28;20142;-36
2023/12/25 06:09:57;;;;;;;5.72;1.52;;;;;;;;;;4970278;28;20098;-35
2023/12/25 06:12:23;;;;;;;8.98;1.92;;;14.60;99.90;;;;;;4969179;28;20525;-34
2023/12/25 06:14:48;;;;;;;7.32;2.33;;;14.50;1.00;;;;;;4970316;28;20035;-35
2023/12/25 06:17:14;;;;;;;8.38;1.88;;;15.00;1.00;;;;;;4970576;28;20167;-35
2023/12/25 06:19:40;;;;;;;9.02;2.30;;;15.40;1.00;;;;;;4968782;28;20109;-37
2023/12/25 06:22:06;;;;;;;8.73;1.92;;;15.10;1.00;;;;;;4970742;28;20042;-36
2023/12/25 06:24:31;;;;;;;5.95;1.75;;;15.00;1.00;;;;;;4970441;28;20047;-34
2023/12/25 06:26:57;;;;;;;6.25;1.88;;;15.30;1.00;;;;;;4969849;28;20089;-36
2023/12/25 06:29:23;;;;;;;8.98;2.10;;;15.00;1.00;;;;;;4970300;28;20043;-36
2023/12/25 06:31:48;;;;;;;6.10;1.70;;;14.90;1.00;;;;;;4969901;28;20090;-37
2023/12/25 06:34:14;;;;;;;5.93;1.70;;;15.00;1.00;;;;;;4968878;28;20050;-34
2023/12/25 06:36:40;;;;;;;9.27;2.00;;;14.80;1.00;;;;;;4969891;28;20045;-34
2023/12/25 06:39:05;;;;;;;6.15;2.00;;;14.50;1.00;;;;;;4970274;28;20042;-38
2023/12/25 06:41:31;;;;;;;7.82;2.47;;;15.10;1.00;;;;;;4970450;28;20058;-37
2023/12/25 06:43:57;;;;;;;6.25;1.90;;;15.30;1.00;;;;;;4969392;28;20121;-34
2023/12/25 06:46:23;;;;;;;8.77;1.83;;;14.80;1.00;;;;;;4983966;28;20125;-34
2023/12/25 06:48:48;;;;;;;7.47;2.10;;;14.80;1.00;;;;;;4968854;28;20182;-36
2023/12/25 06:51:14;;;;;;;11.98;2.22;;;15.10;1.00;;;;;;4985056;28;20062;-35
2023/12/25 06:53:39;;;;;;;6.63;1.90;;;14.40;1.00;;;;;;4970393;28;20038;-37
2023/12/25 06:56:07;;;;;;;10.10;2.25;;;15.60;1.00;;;;;;4969577;28;20113;-35
2023/12/25 06:58:33;;;;;;;9.02;2.20;;;14.90;1.00;;;;;;4971761;28;20391;-34
2023/12/25 07:01:00;;;;;;;9.38;2.00;;;14.60;1.00;;;;;;4973747;28;20147;-36
2023/12/25 07:03:26;;;;;;;7.80;2.03;;;15.20;1.00;;;;;;4973856;28;20053;-37
2023/12/25 07:05:52;;;;;;;7.68;1.95;;;14.70;1.00;;;;;;4972910;28;20035;-36
2023/12/25 07:08:17;;;;;;;8.30;2.05;;;15.10;1.00;;;;;;4973918;28;20035;-35
2023/12/25 07:10:46;;;;;;;8.80;1.90;;;15.30;1.00;;;;;;4973122;28;20035;-34
2023/12/25 07:13:12;;;;;;;6.13;2.05;;;14.80;1.00;;;;;;4970681;28;20039;-37
2023/12/25 07:15:38;;;;;;;11.27;2.40;;;15.20;1.00;;;;;;4973954;28;20034;-35
2023/12/25 07:18:05;;;;;;;4.93;1.60;;;14.80;1.00;;;;;;4973083;28;20042;-35
2023/12/25 07:20:31;;;;;;;10.45;2.20;;;14.80;1.00;;;;;;4973447;28;20081;-36
2023/12/25 07:22:57;;;;;;;10.23;2.08;;;14.60;1.00;;;;;;4972774;28;20070;-34
2023/12/25 07:25:22;;;;;;;6.50;1.90;;;15.40;1.00;;;;;;4973425;28;20066;-34
2023/12/25 07:27:48;;;;;;;7.20;1.90;;;14.90;1.00;;;;;;4972755;28;20480;-35
2023/12/25 07:30:14;;;;;;;7.95;1.80;;;15.10;1.00;;;;;;4973464;28;20406;-37
2023/12/25 07:32:40;;;;;;;6.97;1.67;;;14.60;1.00;;;;;;4973318;28;20130;-34
2023/12/25 07:35:07;;;;;;;7.38;1.83;;;14.90;1.00;;;;;;4972483;28;20042;-35
2023/12/25 07:37:32;;;;;;;7.40;1.75;;;14.60;1.00;;;;;;4971880;28;20047;-35
2023/12/25 07:39:58;;;;;;;7.68;1.95;;;14.80;1.00;;;;;;4972655;28;20513;-37
2023/12/25 07:42:24;;;;;;;7.85;1.80;;;14.80;1.00;;;;;;4986760;28;20043;-35
2023/12/25 07:44:49;;;;;;;8.38;1.67;;;14.80;1.00;;;;;;4972779;28;20039;-35
2023/12/25 07:47:15;;;;;;;7.13;1.60;;;15.00;1.00;;;;;;4972269;28;20049;-34
2023/12/25 07:49:41;;;;;;;9.30;2.08;;;14.90;1.00;;;;;;4986287;28;20109;-37
2023/12/25 07:52:07;;;;;;;9.55;2.67;;;14.60;1.00;;;;;;4971236;28;20053;-36
2023/12/25 07:54:32;;;;;;;6.25;1.85;;;14.90;1.00;;;;;;4971379;28;20082;-34
2023/12/25 07:56:58;;;;;;;5.68;1.42;;;14.90;99.90;;;;;;4971588;28;20376;-34
2023/12/25 07:59:26;;;;;;;6.78;1.75;;;;;;;;;;4972641;28;20617;-34
2023/12/25 08:01:52;;;;;;;8.00;1.65;;;14.80;99.90;;;;;;4969016;28;20123;-35
2023/12/25 08:04:17;;;;;;;5.75;1.50;;;15.00;99.90;;;;;;4967681;28;20487;-41
2023/12/25 08:06:43;;;;;;;7.93;2.00;;;14.30;99.90;;;;;;4966179;28;20056;-35
2023/12/25 08:09:09;;;;;;;5.65;1.80;;;14.80;99.90;;;;;;4968747;28;20042;-34
2023/12/25 08:11:35;;;;;;;8.20;2.58;;;14.50;99.90;;;;;;4969742;28;20043;-35
2023/12/25 08:14:01;;;;;;;6.95;1.73;;;14.80;99.90;;;;;;4971331;28;20113;-34
2023/12/25 08:16:27;;;;;;;8.18;1.77;;;14.70;99.90;;;;;;4985640;28;20486;-34
2023/12/25 08:18:53;;;;;;;8.15;2.05;;;14.80;99.90;;;;;;4972284;28;20082;-36
2023/12/25 08:21:20;;;;;;;7.20;1.70;;;14.80;99.90;;;;;;4972387;28;20047;-37
2023/12/25 08:23:46;;;;;;;6.25;1.70;;;14.90;99.90;;;;;;4972309;28;20046;-34
2023/12/25 08:26:11;;;;;;;6.43;1.50;;;14.40;99.90;;;;;;4971796;28;21890;-37
2023/12/25 08:28:40;;;;;;;6.22;1.52;;;14.60;99.90;;;;;;4971140;28;20023;-38
2023/12/25 08:31:06;;;;;;;6.10;2.00;;;14.70;99.90;;;;;;4970064;28;20046;-36
2023/12/25 08:33:34;;;;;;;7.13;1.73;;;14.60;99.90;;;;;;4972208;28;20066;-35
2023/12/25 08:35:59;;;;;;;5.82;1.63;;;14.50;99.90;;;;;;4971418;28;20035;-37
2023/12/25 08:38:25;;;;;;;6.40;1.55;;;14.80;99.90;;;;;;4986315;28;20042;-34
2023/12/25 08:40:50;;;;;;;6.57;1.67;;;14.90;99.90;;;;;;4972363;28;20034;-34
2023/12/25 08:43:16;;;;;;;9.15;1.90;;;15.30;99.90;;;;;;4971673;28;20041;-37
2023/12/25 08:45:42;;;;;;;8.13;1.58;;;14.90;99.90;;;;;;4971782;28;20043;-42
2023/12/25 08:48:07;;;;;;;6.72;1.83;;;14.70;99.90;;;;;;4970645;28;20494;-34
2023/12/25 08:50:33;;;;;;;5.95;1.58;;;15.50;99.90;;;;;;4971676;28;20113;-38
2023/12/25 08:52:59;;;;;;;7.40;1.70;;;14.80;99.90;;;;;;4971505;28;20043;-36
2023/12/25 08:55:24;;;;;;;7.22;1.70;;;15.60;99.90;;;;;;4971956;28;20055;-35
2023/12/25 08:57:50;;;;;;;7.43;1.95;;;14.20;99.90;;;;;;4970208;28;20042;-34
2023/12/25 09:00:16;;;;;;;5.50;1.65;;;15.00;99.90;;;;;;4970849;28;20520;-36
2023/12/25 09:02:42;;;;;;;4.97;1.45;;;14.30;99.90;;;;;;4971863;28;20114;-34
2023/12/25 09:05:08;;;;;;;8.00;2.10;;;14.80;1.00;;;;;;4971198;28;20113;-34
2023/12/25 09:07:33;;;;;;;7.78;1.88;;;14.60;1.00;;;;;;4971349;28;20495;-37
2023/12/25 09:09:59;;;;;;;7.25;1.98;;;14.50;1.00;;;;;;4971182;28;20074;-34
2023/12/25 09:12:25;;;;;;;6.80;1.80;;;14.60;1.00;;;;;;4971291;28;20086;-34
2023/12/25 09:14:52;;;;;;;6.45;1.60;;;14.10;1.00;;;;;;4961107;28;20126;-34
2023/12/25 09:17:18;;;;;;;7.18;1.40;;;14.40;1.00;;;;;;4968352;28;20047;-38
2023/12/25 09:19:44;;;;;;;7.72;1.80;;;;;;;;;;4968380;28;20139;-37
2023/12/25 09:22:09;;;;;;;8.27;1.80;;;14.50;1.00;;;;;;4966976;28;20042;-34
2023/12/25 09:24:35;;;;;;;5.20;1.58;;;14.40;1.00;;;;;;4971056;28;20042;-35
2023/12/25 09:27:01;;;;;;;6.40;1.88;;;14.70;1.00;;;;;;4970289;28;20039;-34
2023/12/25 09:29:27;;;;;;;12.43;2.80;;;14.80;1.00;;;;;;4970311;28;20035;-38
2023/12/25 09:31:53;;;;;;;31.77;7.50;;;14.70;1.00;;;;;;4971040;28;20101;-36
2023/12/25 09:34:18;;;;;;;38.70;12.18;;;14.70;1.00;;;;;;4969421;28;20043;-37
2023/12/25 09:36:44;;;;;;;48.28;15.23;;;15.10;1.00;;;;;;4969766;28;20130;-36
2023/12/25 09:39:09;;;;;;;46.80;14.73;;;15.00;1.00;;;;;;4970358;28;20577;-35
2023/12/25 09:41:39;;;;;;;64.85;16.35;;;15.20;1.00;;;;;;4970886;28;20045;-34
2023/12/25 09:44:06;;;;;;;58.67;12.65;;;14.70;15.90;;;;;;4970249;28;20061;-36
2023/12/25 09:46:32;;;;;;;30.00;9.25;;;14.70;19.00;;;;;;4965483;28;20510;-37
2023/12/25 09:48:58;;;;;;;17.80;4.65;;;14.90;24.30;;;;;;4966129;28;20562;-37
2023/12/25 09:51:27;;;;;;;21.08;4.45;;;14.60;23.90;;;;;;4964704;28;20035;-34
2023/12/25 09:53:53;;;;;;;14.98;4.47;;;14.90;8.50;;;;;;4965107;28;20057;-34
2023/12/25 09:56:21;;;;;;;15.13;3.75;;;14.60;1.00;;;;;;4968724;28;20122;-34
2023/12/25 09:58:48;;;;;;;16.27;4.13;;;14.30;1.00;;;;;;4965714;28;20043;-34
2023/12/25 10:01:15;;;;;;;14.15;3.28;;;14.40;1.00;;;;;;4968553;28;20045;-35
2023/12/25 10:03:44;;;;;;;19.00;5.25;;;15.10;1.00;;;;;;4969169;28;20487;-35
2023/12/25 10:06:10;;;;;;;18.50;5.82;;;15.20;1.00;;;;;;4969854;28;20038;-34
2023/12/25 10:08:36;;;;;;;12.07;3.13;;;15.00;1.00;;;;;;4966469;28;20042;-36
2023/12/25 10:11:04;;;;;;;16.80;3.58;;;14.30;1.00;;;;;;4966813;28;20118;-40
2023/12/25 10:13:30;;;;;;;10.07;4.05;;;14.60;1.00;;;;;;4966977;28;20053;-34
2023/12/25 10:15:56;;;;;;;11.82;2.95;;;14.10;1.00;;;;;;4969078;28;20039;-34
2023/12/25 10:18:22;;;;;;;9.88;2.95;;;14.50;1.00;;;;;;4968924;28;20046;-37
2023/12/25 10:20:58;;;;;;;12.70;4.30;;;14.50;1.00;;;;;;4968230;28;20045;-39
2023/12/25 10:23:31;;;;;;;11.93;3.50;;;14.40;1.00;;;;;;4969885;28;20062;-36
2023/12/25 10:25:59;;;;;;;12.63;4.10;;;14.20;1.00;;;;;;4968596;28;20054;-36
2023/12/25 10:28:33;;;;;;;12.73;3.10;;;14.30;1.00;;;;;;4963581;28;20061;-34
2023/12/25 10:31:00;;;;;;;9.80;2.85;;;14.40;1.00;;;;;;4965083;28;20395;-36
2023/12/25 10:33:26;;;;;;;10.77;3.25;;;13.70;1.00;;;;;;4968553;28;20406;-38
2023/12/25 10:36:09;;;;;;;14.02;4.05;;;14.40;1.00;;;;;;4973635;28;20031;-36
2023/12/25 10:38:42;;;;;;;10.82;2.58;;;14.00;1.00;;;;;;4967877;28;20135;-38
2023/12/25 10:41:28;;;;;;;13.65;3.10;;;14.20;1.00;;;;;;4971268;28;20060;-38
2023/12/25 10:44:02;;;;;;;9.65;3.25;;;14.10;99.90;;;;;;4984464;28;20054;-35
2023/12/25 10:46:36;;;;;;;9.77;3.67;;;14.10;99.90;;;;;;4971052;28;20026;-34
2023/12/25 10:49:04;;;;;;;12.52;4.10;;;14.10;99.90;;;;;;4973126;28;20490;-35
2023/12/25 10:51:41;;;;;;;11.73;3.25;;;14.40;99.90;;;;;;4970001;28;20050;-35
2023/12/25 10:54:09;;;;;;;12.10;3.60;;;14.10;99.90;;;;;;4972842;28;20092;-38
2023/12/25 10:56:37;;;;;;;11.85;3.17;;;14.30;99.90;;;;;;4973100;28;20418;-36
2023/12/25 10:59:10;;;;;;;10.90;3.25;;;14.50;99.90;;;;;;4973947;28;20554;-36
2023/12/25 11:01:37;;;;;;;11.15;3.65;;;14.10;99.90;;;;;;4973910;28;20096;-37
2023/12/25 11:04:03;;;;;;;15.57;3.75;;;13.80;99.90;;;;;;4973943;28;20497;-37
2023/12/25 11:06:29;;;;;;;10.63;2.97;;;14.10;99.90;;;;;;4973486;28;20042;-35
2023/12/25 11:08:55;;;;;;;16.63;3.58;;;14.20;99.90;;;;;;4973862;28;20039;-37
2023/12/25 11:11:21;;;;;;;14.60;4.35;;;14.10;99.90;;;;;;4973664;28;20039;-35
2023/12/25 11:13:47;;;;;;;11.43;3.50;;;13.90;99.90;;;;;;4974118;28;20039;-35
2023/12/25 11:16:13;;;;;;;13.25;3.17;;;14.40;99.90;;;;;;4973069;28;20054;-38
2023/12/25 11:18:39;;;;;;;11.55;3.00;;;14.00;99.90;;;;;;4972848;28;20488;-39
2023/12/25 11:21:07;;;;;;;16.02;3.20;;;13.50;99.90;;;;;;4972480;28;20066;-34
2023/12/25 11:23:37;;;;;;;13.57;4.28;;;14.10;99.90;;;;;;4973185;28;20516;-36
2023/12/25 11:26:12;;;;;;;14.82;3.63;;;14.10;99.90;;;;;;4973307;28;20514;-38
2023/12/25 11:28:42;;;;;;;10.30;2.92;;;14.00;99.90;;;;;;4972292;28;20154;-35
2023/12/25 11:31:07;;;;;;;11.70;2.65;;;13.70;99.90;;;;;;4969612;28;20054;-39
2023/12/25 11:33:44;;;;;;;11.20;3.05;;;14.20;99.90;;;;;;4973197;28;20495;-37
2023/12/25 11:36:14;;;;;;;10.55;2.97;;;13.80;99.90;;;;;;4967704;28;20495;-40
2023/12/25 11:38:41;;;;;;;14.25;2.90;;;13.80;99.90;;;;;;4967560;28;20084;-37
2023/12/25 11:41:11;;;;;;;14.75;3.28;;;14.20;99.90;;;;;;4969589;28;20388;-36
2023/12/25 11:43:37;;;;;;;10.63;2.92;;;14.20;99.90;;;;;;4972933;28;20117;-38
2023/12/25 11:46:03;;;;;;;12.18;3.15;;;14.20;99.90;;;;;;4970348;28;20176;-35
2023/12/25 11:48:35;;;;;;;9.40;3.53;;;13.80;99.90;;;;;;4971660;28;20480;-38
2023/12/25 11:51:18;;;;;;;15.35;3.05;;;14.20;99.90;;;;;;4972744;28;20115;-35
2023/12/25 11:53:45;;;;;;;14.18;3.70;;;13.90;99.90;;;;;;4972490;28;20042;-35
2023/12/25 11:56:11;;;;;;;12.48;2.97;;;14.20;99.90;;;;;;4971565;28;20031;-35
2023/12/25 11:58:37;;;;;;;11.30;2.60;;;13.90;99.90;;;;;;4969899;28;20546;-37
2023/12/25 12:01:04;;;;;;;14.15;3.25;;;13.80;99.90;;;;;;4971351;28;20039;-36
2023/12/25 12:03:31;;;;;;;14.15;3.75;;;14.30;99.90;;;;;;4967209;28;20039;-36
2023/12/25 12:05:56;;;;;;;10.95;2.90;;;14.10;99.90;;;;;;4970904;28;20077;-34
2023/12/25 12:08:22;;;;;;;12.48;3.22;;;14.10;99.90;;;;;;4967761;28;20075;-35
2023/12/25 12:10:47;;;;;;;14.77;3.53;;;13.40;99.90;;;;;;4968964;28;20525;-37
2023/12/25 12:13:14;;;;;;;15.27;3.20;;;14.20;99.90;;;;;;4972062;28;20130;-36
2023/12/25 12:15:40;;;;;;;15.48;3.05;;;14.10;99.90;;;;;;4965176;28;20035;-37
2023/12/25 12:18:06;;;;;;;11.25;2.88;;;13.90;99.90;;;;;;4967979;28;20061;-36
2023/12/25 12:20:32;;;;;;;13.40;3.78;;;14.10;99.90;;;;;;4970606;28;20043;-36
2023/12/25 12:22:58;;;;;;;13.00;3.85;;;13.80;99.90;;;;;;4972364;28;20474;-35
2023/12/25 12:25:23;;;;;;;14.93;3.20;;;13.70;99.90;;;;;;4965368;28;20082;-35
2023/12/25 12:27:49;;;;;;;10.25;3.38;;;13.80;99.90;;;;;;4982846;28;20047;-37
2023/12/25 12:30:16;;;;;;;11.50;2.80;;;14.30;99.90;;;;;;4970589;28;20578;-39
2023/12/25 12:32:42;;;;;;;13.52;3.65;;;14.00;99.90;;;;;;4969085;28;20049;-37
2023/12/25 12:35:08;;;;;;;9.32;3.00;;;13.50;99.90;;;;;;4971577;28;20082;-39
2023/12/25 12:37:35;;;;;;;14.73;3.58;;;13.70;99.90;;;;;;4971278;28;20035;-36
2023/12/25 12:40:05;;;;;;;10.85;3.83;;;13.80;99.90;;;;;;4970729;28;20097;-35
2023/12/25 12:42:32;;;;;;;9.07;2.72;;;14.10;99.90;;;;;;4971711;28;20046;-35
2023/12/25 12:44:59;;;;;;;12.27;3.50;;;14.20;99.90;;;;;;4971672;28;20035;-37